ENQC

Troll C Platform Heliport

Norway
METAR ENQC 172050Z AUTO 29023KT 9999NDV SCT025/// BKN056/// BKN070/// 07/02 Q1004 W///S5
Observed Flight Rules
Dec-17 @ 20:50 UTC (45 minutes ago)
Wind Clouds
290° at 23 knots
  • Scattered at 2,500' AGL
  • Broken at 5,600' AGL
  • Broken at 7,000' AGL
Temperatures Readings
Current 7°C / 45°F
Dewpoint 2°C / 36°F
Humidity 71%
Altimeter 29.65" Hg
Pressure 1004 hPa
Elevation 20
METAR ENQC 172050Z AUTO 29023KT 9999NDV SCT025/// BKN056/// BKN070/// 07/02 Q1004 W///S5
Observed Flight Rules
Dec-17 @ 20:50 UTC
(45 minutes ago)
Wind
290° at 23 knots
Clouds
  • Scattered at 2,500' AGL
  • Broken at 5,600' AGL
  • Broken at 7,000' AGL
Temperature Dewpoint
7°C / 45°F 2°C / 36°F
Humidity Altimeter Pressure
71% 29.65" Hg 1004 hPa